Time,TemperatureF,DewpointF,PressureIn,WindDirection,WindDirectionDegrees,WindSpeedMPH,WindSpeedGustMPH,Humidity,HourlyPrecipIn,Conditions,Clouds,dailyrainin,SoftwareType,DateUTC
2013-02-25 00:02:00,44.6,36.0,29.82,ENE,57,2.0,2.0,73,0.00,,,0.00,weatherlink.com 1.10,2013-02-25 06:02:00,
2013-02-25 00:17:00,44.5,36.0,29.82,ENE,57,0.0,2.0,73,0.00,,,0.00,weatherlink.com 1.10,2013-02-25 06:17:00,
2013-02-25 00:32:00,44.0,36.0,29.81,NE,53,1.0,2.0,74,0.00,,,0.00,weatherlink.com 1.10,2013-02-25 06:32:00,
2013-02-25 00:47:00,43.4,36.0,29.80,NE,53,0.0,2.0,75,0.00,,,0.00,weatherlink.com 1.10,2013-02-25 06:47:00,
2013-02-25 01:02:00,43.4,36.0,29.80,North,5,1.0,2.0,75,0.00,,,0.00,weatherlink.com 1.10,2013-02-25 07:02:00,
2013-02-25 01:17:00,43.6,37.0,29.79,ENE,76,0.0,2.0,76,0.00,,,0.00,weatherlink.com 1.10,2013-02-25 07:17:00,
2013-02-25 01:32:00,44.2,37.0,29.79,ENE,76,0.0,1.0,75,0.00,,,0.00,weatherlink.com 1.10,2013-02-25 07:32:00,
2013-02-25 01:47:00,44.7,37.0,29.79,ENE,76,0.0,1.0,74,0.00,,,0.00,weatherlink.com 1.10,2013-02-25 07:47:00,
2013-02-25 02:02:00,45.3,37.0,29.79,ENE,76,0.0,1.0,73,0.00,,,0.00,weatherlink.com 1.10,2013-02-25 08:02:00,
2013-02-25 02:17:00,45.7,37.0,29.79,ENE,76,0.0,1.0,72,0.00,,,0.00,weatherlink.com 1.10,2013-02-25 08:17:00,
2013-02-25 02:32:00,45.9,38.0,29.77,ENE,76,2.0,2.0,73,0.00,,,0.00,weatherlink.com 1.10,2013-02-25 08:32:00,
2013-02-25 02:47:00,46.6,37.0,29.77,ENE,72,1.0,2.0,69,0.00,,,0.00,weatherlink.com 1.10,2013-02-25 08:47:00,
2013-02-25 03:03:00,46.9,37.0,29.76,SE,130,0.0,3.0,68,0.00,,,0.00,weatherlink.com 1.10,2013-02-25 09:03:00,
2013-02-25 03:17:00,46.6,36.0,29.76,ENE,74,0.0,2.0,68,0.00,,,0.00,weatherlink.com 1.10,2013-02-25 09:17:00,
2013-02-25 03:33:00,45.8,37.0,29.77,ENE,74,0.0,2.0,70,0.00,,,0.00,weatherlink.com 1.10,2013-02-25 09:33:00,
2013-02-25 03:48:00,46.3,36.0,29.75,East,90,0.0,3.0,68,0.00,,,0.00,weatherlink.com 1.10,2013-02-25 09:48:00,
2013-02-25 04:03:00,45.6,36.0,29.74,East,90,0.0,2.0,69,0.00,,,0.00,weatherlink.com 1.10,2013-02-25 10:03:00,
2013-02-25 04:18:00,45.5,37.0,29.73,ENE,77,1.0,3.0,71,0.00,,,0.00,weatherlink.com 1.10,2013-02-25 10:18:00,
2013-02-25 04:33:00,45.6,36.0,29.72,NE,51,1.0,3.0,70,0.00,,,0.00,weatherlink.com 1.10,2013-02-25 10:33:00,
2013-02-25 04:48:00,45.4,36.0,29.73,NE,43,0.0,2.0,70,0.00,,,0.00,weatherlink.com 1.10,2013-02-25 10:48:00,
2013-02-25 05:03:00,45.1,36.0,29.73,NNE,26,0.0,2.0,71,0.00,,,0.00,weatherlink.com 1.10,2013-02-25 11:03:00,
2013-02-25 05:18:00,45.4,36.0,29.74,NNE,26,0.0,2.0,71,0.00,,,0.00,weatherlink.com 1.10,2013-02-25 11:18:00,
2013-02-25 05:33:00,45.4,37.0,29.71,ENE,75,1.0,3.0,72,0.00,,,0.00,weatherlink.com 1.10,2013-02-25 11:33:00,
2013-02-25 05:48:00,45.1,36.0,29.72,ENE,78,1.0,3.0,71,0.00,,,0.00,weatherlink.com 1.10,2013-02-25 11:48:00,
2013-02-25 06:03:00,45.4,36.0,29.73,SE,126,0.0,2.0,70,0.00,,,0.00,weatherlink.com 1.10,2013-02-25 12:03:00,
2013-02-25 06:18:00,45.6,36.0,29.74,ESE,117,0.0,2.0,70,0.00,,,0.00,weatherlink.com 1.10,2013-02-25 12:18:00,
2013-02-25 06:33:00,45.6,36.0,29.74,ESE,103,0.0,1.0,70,0.00,,,0.00,weatherlink.com 1.10,2013-02-25 12:33:00,
2013-02-25 07:03:00,45.2,36.0,29.75,East,90,1.0,2.0,71,0.00,,,0.00,weatherlink.com 1.10,2013-02-25 13:03:00,
2013-02-25 07:18:00,45.5,36.0,29.73,East,84,1.0,3.0,69,0.00,,,0.00,weatherlink.com 1.10,2013-02-25 13:18:00,
2013-02-25 07:33:00,46.1,36.0,29.73,East,94,1.0,3.0,68,0.00,,,0.00,weatherlink.com 1.10,2013-02-25 13:33:00,
2013-02-25 07:48:00,46.8,35.0,29.73,ESE,103,2.0,3.0,65,0.00,,,0.00,weatherlink.com 1.10,2013-02-25 13:48:00,
2013-02-25 08:03:00,47.5,35.0,29.73,East,84,2.0,7.0,63,0.00,,,0.00,weatherlink.com 1.10,2013-02-25 14:03:00,
2013-02-25 08:18:00,47.8,36.0,29.73,ESE,120,5.0,6.0,64,0.00,,,0.00,weatherlink.com 1.10,2013-02-25 14:18:00,
2013-02-25 08:33:00,48.0,36.0,29.72,East,90,3.0,11.0,64,0.00,,,0.00,weatherlink.com 1.10,2013-02-25 14:33:00,
2013-02-25 08:48:00,48.0,36.0,29.70,ESE,111,4.0,9.0,63,0.00,,,0.00,weatherlink.com 1.10,2013-02-25 14:48:00,
2013-02-25 09:03:00,48.4,36.0,29.71,ESE,107,3.0,9.0,62,0.00,,,0.00,weatherlink.com 1.10,2013-02-25 15:03:00,
2013-02-25 09:18:00,48.3,36.0,29.71,ESE,102,3.0,8.0,63,0.00,,,0.00,weatherlink.com 1.10,2013-02-25 15:18:00,
2013-02-25 09:33:00,47.7,37.0,29.70,East,79,7.0,13.0,66,0.00,,,0.00,weatherlink.com 1.10,2013-02-25 15:33:00,
2013-02-25 09:48:00,47.0,37.0,29.68,East,87,3.0,9.0,68,0.00,,,0.00,weatherlink.com 1.10,2013-02-25 15:48:00,
2013-02-25 10:03:00,46.9,37.0,29.67,East,89,7.0,12.0,69,0.00,,,0.00,weatherlink.com 1.10,2013-02-25 16:03:00,
2013-02-25 10:18:00,46.8,38.0,29.67,ESE,119,7.0,15.0,71,0.00,,,0.00,weatherlink.com 1.10,2013-02-25 16:18:00,
2013-02-25 10:33:00,46.3,38.0,29.68,East,96,1.0,9.0,74,0.00,,,0.00,weatherlink.com 1.10,2013-02-25 16:33:00,
2013-02-25 10:48:00,45.6,40.0,29.66,East,91,2.0,8.0,82,0.00,,,0.00,weatherlink.com 1.10,2013-02-25 16:48:00,
2013-02-25 11:03:00,44.4,41.0,29.65,East,94,2.0,5.0,87,0.00,,,0.00,weatherlink.com 1.10,2013-02-25 17:03:00,
2013-02-25 11:18:00,44.7,41.0,29.63,ESE,107,2.0,8.0,86,0.00,,,0.00,weatherlink.com 1.10,2013-02-25 17:18:00,
2013-02-25 11:33:00,45.0,42.0,29.62,East,81,5.0,9.0,88,0.00,,,0.00,weatherlink.com 1.10,2013-02-25 17:33:00,
2013-02-25 11:48:00,44.9,42.0,29.59,ESE,109,3.0,10.0,90,0.00,,,0.00,weatherlink.com 1.10,2013-02-25 17:48:00,
2013-02-25 12:03:00,45.1,42.0,29.57,ESE,105,4.0,10.0,90,0.00,,,0.00,weatherlink.com 1.10,2013-02-25 18:03:00,
2013-02-25 12:18:00,45.3,43.0,29.55,East,98,6.0,10.0,90,0.00,,,0.00,weatherlink.com 1.10,2013-02-25 18:18:00,
2013-02-25 12:33:00,45.4,43.0,29.55,ESE,117,4.0,11.0,91,0.00,,,0.00,weatherlink.com 1.10,2013-02-25 18:33:00,
2013-02-25 12:48:00,45.6,44.0,29.52,ESE,114,7.0,12.0,92,0.00,,,0.00,weatherlink.com 1.10,2013-02-25 18:48:00,
2013-02-25 13:04:00,45.5,43.0,29.52,East,92,3.0,8.0,92,0.00,,,0.00,weatherlink.com 1.10,2013-02-25 19:04:00,
2013-02-25 13:19:00,45.2,44.0,29.51,East,94,5.0,9.0,95,0.00,,,0.00,weatherlink.com 1.10,2013-02-25 19:19:00,
2013-02-25 13:34:00,45.3,44.0,29.48,East,90,7.0,8.0,95,0.00,,,0.00,weatherlink.com 1.10,2013-02-25 19:34:00,
2013-02-25 13:49:00,45.5,45.0,29.45,SE,129,5.0,9.0,96,0.00,,,0.00,weatherlink.com 1.10,2013-02-25 19:49:00,
2013-02-25 14:04:00,46.0,45.0,29.42,ESE,110,5.0,9.0,96,0.00,,,0.00,weatherlink.com 1.10,2013-02-25 20:04:00,
2013-02-25 14:34:00,46.5,46.0,29.46,NW,324,2.0,3.0,96,0.00,,,0.00,weatherlink.com 1.10,2013-02-25 20:34:00,
2013-02-25 14:49:00,46.6,46.0,29.39,East,95,1.0,6.0,97,0.00,,,0.00,weatherlink.com 1.10,2013-02-25 20:49:00,
2013-02-25 15:04:00,46.7,46.0,29.49,WSW,240,4.0,7.0,97,0.01,,,0.01,weatherlink.com 1.10,2013-02-25 21:04:00,
2013-02-25 15:19:00,46.9,46.0,29.45,ESE,117,2.0,4.0,97,0.12,,,0.12,weatherlink.com 1.10,2013-02-25 21:19:00,
2013-02-25 15:34:00,47.5,47.0,29.42,ENE,61,0.0,3.0,98,0.12,,,0.12,weatherlink.com 1.10,2013-02-25 21:34:00,
2013-02-25 15:49:00,47.5,47.0,29.42,ENE,72,3.0,3.0,97,0.12,,,0.12,weatherlink.com 1.10,2013-02-25 21:49:00,
2013-02-25 16:04:00,47.4,47.0,29.44,ESE,119,2.0,3.0,97,0.11,,,0.12,weatherlink.com 1.10,2013-02-25 22:04:00,
2013-02-25 16:19:00,47.5,47.0,29.45,ESE,119,0.0,1.0,97,0.00,,,0.12,weatherlink.com 1.10,2013-02-25 22:19:00,
2013-02-25 16:34:00,47.6,47.0,29.44,ESE,119,0.0,0.0,98,0.01,,,0.13,weatherlink.com 1.10,2013-02-25 22:34:00,
2013-02-25 16:49:00,47.5,47.0,29.43,ESE,119,0.0,1.0,97,0.01,,,0.13,weatherlink.com 1.10,2013-02-25 22:49:00,
2013-02-25 17:04:00,47.3,47.0,29.43,SW,225,0.0,3.0,97,0.01,,,0.13,weatherlink.com 1.10,2013-02-25 23:04:00,
2013-02-25 17:19:00,47.1,46.0,29.41,ESE,107,0.0,2.0,97,0.01,,,0.13,weatherlink.com 1.10,2013-02-25 23:19:00,
2013-02-25 17:34:00,47.0,46.0,29.39,East,80,1.0,2.0,97,0.00,,,0.13,weatherlink.com 1.10,2013-02-25 23:34:00,
2013-02-25 17:49:00,47.0,46.0,29.38,NE,51,0.0,2.0,97,0.00,,,0.13,weatherlink.com 1.10,2013-02-25 23:49:00,
2013-02-25 18:04:00,46.9,46.0,29.39,WSW,252,1.0,3.0,97,0.00,,,0.13,weatherlink.com 1.10,2013-02-26 00:04:00,
2013-02-25 18:19:00,46.7,46.0,29.42,WSW,252,0.0,2.0,98,0.00,,,0.13,weatherlink.com 1.10,2013-02-26 00:19:00,
2013-02-25 18:34:00,46.7,46.0,29.41,WSW,252,0.0,0.0,98,0.00,,,0.13,weatherlink.com 1.10,2013-02-26 00:34:00,
2013-02-25 18:49:00,46.8,46.0,29.40,WSW,252,0.0,2.0,98,0.00,,,0.13,weatherlink.com 1.10,2013-02-26 00:49:00,
2013-02-25 19:04:00,46.9,46.0,29.40,SSW,198,1.0,4.0,98,0.00,,,0.13,weatherlink.com 1.10,2013-02-26 01:04:00,
2013-02-25 19:19:00,47.0,47.0,29.42,WSW,245,2.0,5.0,98,0.00,,,0.13,weatherlink.com 1.10,2013-02-26 01:19:00,
2013-02-25 19:34:00,47.1,47.0,29.40,SW,227,0.0,1.0,98,0.00,,,0.13,weatherlink.com 1.10,2013-02-26 01:34:00,
2013-02-25 19:49:00,46.9,46.0,29.41,SW,227,0.0,0.0,98,0.00,,,0.13,weatherlink.com 1.10,2013-02-26 01:49:00,
2013-02-25 20:04:00,46.8,46.0,29.40,SW,227,0.0,0.0,98,0.00,,,0.13,weatherlink.com 1.10,2013-02-26 02:04:00,
2013-02-25 20:19:00,46.4,46.0,29.39,SW,227,0.0,0.0,98,0.00,,,0.13,weatherlink.com 1.10,2013-02-26 02:19:00,
2013-02-25 20:34:00,45.8,45.0,29.39,SW,227,0.0,0.0,97,0.00,,,0.13,weatherlink.com 1.10,2013-02-26 02:34:00,
2013-02-25 20:49:00,45.0,44.0,29.39,SW,227,0.0,0.0,97,0.00,,,0.13,weatherlink.com 1.10,2013-02-26 02:49:00,
2013-02-25 21:04:00,44.3,44.0,29.38,SW,227,0.0,0.0,97,0.00,,,0.13,weatherlink.com 1.10,2013-02-26 03:04:00,
2013-02-25 21:19:00,43.7,43.0,29.39,SW,227,0.0,0.0,97,0.00,,,0.13,weatherlink.com 1.10,2013-02-26 03:19:00,
2013-02-25 21:34:00,43.2,42.0,29.38,SW,227,0.0,0.0,97,0.00,,,0.13,weatherlink.com 1.10,2013-02-26 03:34:00,
2013-02-25 21:49:00,43.5,43.0,29.38,SW,227,0.0,2.0,98,0.00,,,0.13,weatherlink.com 1.10,2013-02-26 03:49:00,
2013-02-25 22:04:00,44.0,44.0,29.39,SW,227,0.0,2.0,99,0.00,,,0.13,weatherlink.com 1.10,2013-02-26 04:04:00,
2013-02-25 22:19:00,44.2,44.0,29.39,SW,227,0.0,0.0,99,0.00,,,0.13,weatherlink.com 1.10,2013-02-26 04:19:00,
2013-02-25 22:34:00,45.2,45.0,29.40,WSW,248,0.0,4.0,99,0.00,,,0.13,weatherlink.com 1.10,2013-02-26 04:34:00,
2013-02-25 22:49:00,44.9,45.0,29.39,SW,236,2.0,2.0,99,0.00,,,0.13,weatherlink.com 1.10,2013-02-26 04:49:00,
2013-02-25 23:04:00,44.5,44.0,29.38,WNW,285,0.0,2.0,99,0.00,,,0.13,weatherlink.com 1.10,2013-02-26 05:04:00,
2013-02-25 23:19:00,44.6,44.0,29.39,WSW,240,2.0,3.0,99,0.00,,,0.13,weatherlink.com 1.10,2013-02-26 05:19:00,
2013-02-25 23:34:00,44.6,44.0,29.39,SW,220,1.0,2.0,99,0.00,,,0.13,weatherlink.com 1.10,2013-02-26 05:34:00,
2013-02-25 23:49:00,44.6,44.0,29.39,SW,220,0.0,2.0,99,0.00,,,0.13,weatherlink.com 1.10,2013-02-26 05:49:00,